createdAt,value
2017-12-29T00:00:48.633Z,0
2017-12-29T00:01:51.047Z,0
2017-12-29T00:02:53.451Z,0
2017-12-29T00:03:55.864Z,0
2017-12-29T00:04:58.568Z,0
2017-12-29T00:06:00.965Z,0
2017-12-29T00:07:03.382Z,0
2017-12-29T00:08:06.073Z,0
2017-12-29T00:09:08.482Z,0
2017-12-29T00:10:10.884Z,0
2017-12-29T00:11:13.309Z,0
2017-12-29T00:12:15.707Z,0
2017-12-29T00:13:18.115Z,0
2017-12-29T00:14:20.530Z,0
2017-12-29T00:15:22.934Z,0
2017-12-29T00:16:25.342Z,0
2017-12-29T00:17:28.051Z,0
2017-12-29T00:18:30.452Z,0
2017-12-29T00:19:32.870Z,0
2017-12-29T00:20:35.565Z,0
2017-12-29T00:21:37.979Z,0
2017-12-29T00:22:40.661Z,0
2017-12-29T00:23:43.071Z,0
2017-12-29T00:24:45.776Z,0
2017-12-29T00:25:48.188Z,0
2017-12-29T00:26:50.883Z,0
2017-12-29T00:27:53.299Z,0
2017-12-29T00:28:55.695Z,0
2017-12-29T00:29:58.406Z,0
2017-12-29T00:31:00.817Z,0
2017-12-29T00:32:03.214Z,0
2017-12-29T00:33:05.630Z,0
2017-12-29T00:34:08.045Z,0
2017-12-29T00:35:10.451Z,0
2017-12-29T00:36:12.865Z,0
2017-12-29T00:37:15.265Z,0
2017-12-29T00:38:17.947Z,0
2017-12-29T00:39:20.371Z,0
2017-12-29T00:40:22.770Z,0
2017-12-29T00:41:25.191Z,0
2017-12-29T00:42:27.593Z,0
2017-12-29T00:43:29.995Z,0
2017-12-29T00:44:32.401Z,0
2017-12-29T00:45:34.807Z,0
2017-12-29T00:46:37.223Z,0
2017-12-29T00:47:39.634Z,0
2017-12-29T00:48:42.043Z,0
2017-12-29T00:49:44.456Z,0
2017-12-29T00:50:47.147Z,0
2017-12-29T00:51:49.563Z,0
2017-12-29T00:52:51.983Z,0
2017-12-29T00:53:54.384Z,0
2017-12-29T00:54:56.800Z,0
2017-12-29T00:55:59.203Z,0
2017-12-29T00:57:01.915Z,0
2017-12-29T00:58:04.323Z,0
2017-12-29T00:59:06.732Z,0
2017-12-29T01:00:09.141Z,0
2017-12-29T01:01:11.553Z,0
2017-12-29T01:02:13.960Z,0
2017-12-29T01:03:16.382Z,0
2017-12-29T01:04:18.787Z,0
2017-12-29T01:05:21.193Z,0
2017-12-29T01:06:23.606Z,0
2017-12-29T01:07:26.016Z,0
2017-12-29T01:08:28.433Z,0
2017-12-29T01:09:30.827Z,0
2017-12-29T01:10:33.250Z,0
2017-12-29T01:11:35.653Z,0
2017-12-29T01:12:38.064Z,0
2017-12-29T01:13:41.049Z,0
2017-12-29T01:14:43.454Z,0
2017-12-29T01:15:45.870Z,0
2017-12-29T01:16:48.288Z,0
2017-12-29T01:17:50.966Z,0
2017-12-29T01:18:53.375Z,0
2017-12-29T01:19:55.797Z,0
2017-12-29T01:20:58.202Z,0
2017-12-29T01:22:00.612Z,0
2017-12-29T01:23:03.021Z,0
2017-12-29T01:24:05.715Z,0
2017-12-29T01:25:08.133Z,0
2017-12-29T01:26:10.543Z,0
2017-12-29T01:27:12.943Z,0
2017-12-29T01:28:15.355Z,0
2017-12-29T01:29:17.766Z,0
2017-12-29T01:30:20.179Z,0
2017-12-29T01:31:22.580Z,0
2017-12-29T01:32:24.992Z,0
2017-12-29T01:33:27.400Z,0
2017-12-29T01:34:29.815Z,0
2017-12-29T01:35:32.513Z,0
2017-12-29T01:36:34.917Z,0
2017-12-29T01:37:37.613Z,0
2017-12-29T01:38:40.019Z,0
2017-12-29T01:39:42.427Z,0
2017-12-29T01:40:44.830Z,0
2017-12-29T01:41:47.238Z,0
2017-12-29T01:42:49.646Z,0
2017-12-29T01:43:52.060Z,0
2017-12-29T01:44:54.468Z,0
2017-12-29T01:45:56.884Z,0
2017-12-29T01:46:59.578Z,0
2017-12-29T01:48:02.001Z,0
2017-12-29T01:49:04.408Z,0
2017-12-29T01:50:07.417Z,0
2017-12-29T01:51:09.858Z,0
2017-12-29T01:52:12.267Z,0
2017-12-29T01:53:14.681Z,0
2017-12-29T01:54:17.082Z,0
2017-12-29T01:55:19.500Z,0
2017-12-29T01:56:22.190Z,0
2017-12-29T01:57:24.601Z,0
2017-12-29T01:58:27.006Z,0
2017-12-29T01:59:29.748Z,0
2017-12-29T02:00:32.145Z,0
2017-12-29T02:01:34.566Z,0
2017-12-29T02:02:36.971Z,0
2017-12-29T02:03:39.664Z,0
2017-12-29T02:04:42.079Z,0
2017-12-29T02:05:44.511Z,0
2017-12-29T02:06:46.893Z,0
2017-12-29T02:07:49.863Z,0
2017-12-29T02:08:52.268Z,0
2017-12-29T02:09:54.681Z,0
2017-12-29T02:10:57.092Z,0
2017-12-29T02:11:59.505Z,0
2017-12-29T02:13:01.915Z,0
2017-12-29T02:14:04.613Z,0
2017-12-29T02:15:07.033Z,0
2017-12-29T02:16:09.433Z,0
2017-12-29T02:17:11.851Z,0
2017-12-29T02:18:14.259Z,0
2017-12-29T02:19:16.668Z,0
2017-12-29T02:20:19.082Z,0
2017-12-29T02:21:21.486Z,0
2017-12-29T02:22:23.900Z,0
2017-12-29T02:23:26.310Z,0
2017-12-29T02:24:28.714Z,0
2017-12-29T02:25:31.118Z,0
2017-12-29T02:26:33.545Z,0
2017-12-29T02:27:35.960Z,0
2017-12-29T02:28:38.643Z,0
2017-12-29T02:29:41.061Z,0
2017-12-29T02:30:43.463Z,0
2017-12-29T02:31:45.879Z,0
2017-12-29T02:32:48.295Z,0
2017-12-29T02:33:50.684Z,0
2017-12-29T02:34:53.089Z,0
2017-12-29T02:35:55.796Z,0
2017-12-29T02:36:58.206Z,0
2017-12-29T02:38:00.618Z,0
2017-12-29T02:39:03.037Z,0
2017-12-29T02:40:05.451Z,0
2017-12-29T02:41:07.849Z,0
2017-12-29T02:42:10.260Z,0
2017-12-29T02:43:12.676Z,0
2017-12-29T02:44:15.081Z,0
2017-12-29T02:45:17.485Z,0
2017-12-29T02:46:19.903Z,0
2017-12-29T02:47:22.307Z,0
2017-12-29T02:48:25.010Z,0
2017-12-29T02:49:27.422Z,0
2017-12-29T02:50:29.825Z,0
2017-12-29T02:51:32.241Z,0
2017-12-29T02:52:34.654Z,0
2017-12-29T02:53:37.063Z,0
2017-12-29T02:54:39.472Z,0
2017-12-29T02:55:41.878Z,0
2017-12-29T02:56:44.301Z,0
2017-12-29T02:57:46.714Z,0
2017-12-29T02:58:49.124Z,0
2017-12-29T02:59:51.537Z,0
2017-12-29T03:00:53.949Z,0
2017-12-29T03:01:56.628Z,0
2017-12-29T03:02:59.047Z,0
2017-12-29T03:04:01.455Z,0
2017-12-29T03:05:03.861Z,0
2017-12-29T03:06:06.276Z,0
2017-12-29T03:07:08.685Z,0
2017-12-29T03:08:11.098Z,0
2017-12-29T03:09:13.508Z,0
2017-12-29T03:10:15.921Z,0
2017-12-29T03:11:18.337Z,0
2017-12-29T03:12:20.747Z,0
2017-12-29T03:13:23.152Z,0
2017-12-29T03:14:25.577Z,0
2017-12-29T03:15:27.978Z,0
2017-12-29T03:16:31.261Z,0
2017-12-29T03:17:33.944Z,0
2017-12-29T03:18:36.360Z,0
2017-12-29T03:19:38.772Z,0
2017-12-29T03:20:41.186Z,0
2017-12-29T03:21:43.584Z,0
2017-12-29T03:22:46.005Z,0
2017-12-29T03:23:48.407Z,0
2017-12-29T03:24:51.111Z,0
2017-12-29T03:25:53.535Z,0
2017-12-29T03:26:55.933Z,0
2017-12-29T03:27:58.347Z,0
2017-12-29T03:29:01.339Z,0
2017-12-29T03:30:03.752Z,0
2017-12-29T03:31:06.161Z,0
2017-12-29T03:32:08.582Z,0
2017-12-29T03:33:10.978Z,0
2017-12-29T03:34:13.699Z,0
2017-12-29T03:35:16.400Z,0
2017-12-29T03:36:18.797Z,0
2017-12-29T03:37:21.208Z,0
2017-12-29T03:38:23.623Z,0
2017-12-29T03:39:26.039Z,0
2017-12-29T03:40:28.730Z,0
2017-12-29T03:41:31.147Z,0
2017-12-29T03:42:33.561Z,0
2017-12-29T03:43:35.972Z,0
2017-12-29T03:44:38.380Z,0
2017-12-29T03:45:40.792Z,0
2017-12-29T03:46:43.491Z,0
2017-12-29T03:47:46.186Z,0
2017-12-29T03:48:48.880Z,0
2017-12-29T03:49:51.279Z,0
2017-12-29T03:50:53.977Z,0
2017-12-29T03:51:56.385Z,0
2017-12-29T03:52:58.803Z,0
2017-12-29T03:54:01.217Z,0
2017-12-29T03:55:03.620Z,0
2017-12-29T03:56:06.027Z,0
2017-12-29T03:57:08.448Z,0
2017-12-29T03:58:10.851Z,0
2017-12-29T03:59:13.255Z,0
2017-12-29T04:00:15.667Z,0
2017-12-29T04:01:18.072Z,0
2017-12-29T04:02:20.487Z,0
2017-12-29T04:03:23.186Z,0
2017-12-29T04:04:25.583Z,0
2017-12-29T04:05:27.995Z,0
2017-12-29T04:06:30.404Z,0
2017-12-29T04:07:33.103Z,0
2017-12-29T04:08:35.503Z,0
2017-12-29T04:09:37.918Z,0
2017-12-29T04:10:40.328Z,0
2017-12-29T04:11:42.735Z,0
2017-12-29T04:12:45.143Z,0
2017-12-29T04:13:47.563Z,0
2017-12-29T04:14:49.956Z,0
2017-12-29T04:15:52.384Z,0
2017-12-29T04:16:54.786Z,0
2017-12-29T04:17:57.195Z,0
2017-12-29T04:18:59.600Z,0
2017-12-29T04:20:02.010Z,0
2017-12-29T04:21:04.416Z,0
2017-12-29T04:22:06.840Z,0
2017-12-29T04:23:09.246Z,0
2017-12-29T04:24:11.659Z,0
2017-12-29T04:25:14.060Z,0
2017-12-29T04:26:16.471Z,0
2017-12-29T04:27:18.876Z,0
2017-12-29T04:28:21.296Z,0
2017-12-29T04:29:24.279Z,0
2017-12-29T04:30:26.738Z,0
2017-12-29T04:31:29.110Z,0
2017-12-29T04:32:31.797Z,0
2017-12-29T04:33:34.203Z,0
2017-12-29T04:34:36.617Z,0
2017-12-29T04:35:39.027Z,0
2017-12-29T04:36:41.434Z,0
2017-12-29T04:37:43.846Z,0
2017-12-29T04:38:46.257Z,0
2017-12-29T04:39:48.666Z,0
2017-12-29T04:40:51.068Z,0
2017-12-29T04:41:53.491Z,0
2017-12-29T04:42:55.895Z,0
2017-12-29T04:43:58.307Z,0
2017-12-29T04:45:00.727Z,0
2017-12-29T04:46:03.404Z,0
2017-12-29T04:47:05.819Z,0
2017-12-29T04:48:08.236Z,0
2017-12-29T04:49:10.626Z,0
2017-12-29T04:50:13.045Z,0
2017-12-29T04:51:15.452Z,0
2017-12-29T04:52:17.861Z,0
2017-12-29T04:53:20.265Z,0
2017-12-29T04:54:22.671Z,0
2017-12-29T04:55:25.078Z,0
2017-12-29T04:56:27.772Z,0
2017-12-29T04:57:30.180Z,0
2017-12-29T04:58:32.588Z,0
2017-12-29T04:59:35.000Z,0
2017-12-29T05:00:37.410Z,0
2017-12-29T05:01:39.823Z,0
2017-12-29T05:02:42.235Z,0
2017-12-29T05:03:44.641Z,0
2017-12-29T05:04:47.330Z,0
2017-12-29T05:05:49.738Z,0
2017-12-29T05:06:52.152Z,0
2017-12-29T05:07:54.556Z,0
2017-12-29T05:08:57.250Z,0
2017-12-29T05:09:59.658Z,0
2017-12-29T05:11:02.640Z,0
2017-12-29T05:12:05.096Z,0
2017-12-29T05:13:07.465Z,0
2017-12-29T05:14:09.869Z,0
2017-12-29T05:15:12.318Z,0
2017-12-29T05:16:14.682Z,0
2017-12-29T05:17:17.096Z,0
2017-12-29T05:18:19.501Z,0
2017-12-29T05:19:21.917Z,0
2017-12-29T05:20:24.315Z,0
2017-12-29T05:21:26.730Z,0
2017-12-29T05:22:29.131Z,0
2017-12-29T05:23:31.546Z,0
2017-12-29T05:24:33.949Z,0
2017-12-29T05:25:36.359Z,0
2017-12-29T05:26:38.765Z,0
2017-12-29T05:27:41.191Z,0
2017-12-29T05:28:43.593Z,0
2017-12-29T05:29:46.003Z,0
2017-12-29T05:30:48.412Z,0
2017-12-29T05:31:50.825Z,0
2017-12-29T05:32:53.237Z,0
2017-12-29T05:33:55.647Z,0
2017-12-29T05:34:58.044Z,0
2017-12-29T05:36:00.465Z,0
2017-12-29T05:37:02.864Z,0
2017-12-29T05:38:05.550Z,0
2017-12-29T05:39:07.979Z,0
2017-12-29T05:40:10.376Z,0
2017-12-29T05:41:12.794Z,0
2017-12-29T05:42:15.204Z,0
2017-12-29T05:43:17.608Z,0
2017-12-29T05:44:20.016Z,0
2017-12-29T05:45:22.434Z,0
2017-12-29T05:46:24.830Z,0
2017-12-29T05:47:27.243Z,0
2017-12-29T05:48:29.661Z,0
2017-12-29T05:49:32.063Z,0
2017-12-29T05:50:34.481Z,0
2017-12-29T05:51:37.159Z,0
2017-12-29T05:52:39.569Z,0
2017-12-29T05:53:42.282Z,0
2017-12-29T05:54:44.686Z,0
2017-12-29T05:55:47.097Z,0
2017-12-29T05:56:49.509Z,0
2017-12-29T05:57:51.930Z,0
2017-12-29T05:58:54.335Z,0
2017-12-29T05:59:56.746Z,0
2017-12-29T06:00:59.140Z,0
2017-12-29T06:02:01.837Z,0
2017-12-29T06:03:04.243Z,0
2017-12-29T06:04:06.645Z,0
2017-12-29T06:05:09.343Z,0
2017-12-29T06:06:11.753Z,0
2017-12-29T06:07:14.156Z,0
2017-12-29T06:08:16.856Z,0
2017-12-29T06:09:19.546Z,0
2017-12-29T06:10:21.967Z,0
2017-12-29T06:11:24.370Z,0
2017-12-29T06:12:26.772Z,0
2017-12-29T06:13:29.185Z,0
2017-12-29T06:14:31.597Z,0
2017-12-29T06:15:34.009Z,0
2017-12-29T06:16:36.724Z,0
2017-12-29T06:17:39.137Z,0
2017-12-29T06:18:41.834Z,0
2017-12-29T06:19:44.247Z,0
2017-12-29T06:20:46.660Z,0
2017-12-29T06:21:49.073Z,0
2017-12-29T06:22:51.764Z,0
2017-12-29T06:23:54.171Z,0
2017-12-29T06:24:56.591Z,0
2017-12-29T06:25:58.999Z,0
2017-12-29T06:27:01.691Z,0
2017-12-29T06:28:04.384Z,0
2017-12-29T06:29:07.083Z,0
2017-12-29T06:30:09.497Z,0
2017-12-29T06:31:11.901Z,0
2017-12-29T06:32:14.314Z,0
2017-12-29T06:33:16.725Z,0
2017-12-29T06:34:19.137Z,0
2017-12-29T06:35:21.547Z,0
2017-12-29T06:36:23.961Z,0
2017-12-29T06:37:26.641Z,0
2017-12-29T06:38:29.050Z,0
2017-12-29T06:39:31.457Z,0
2017-12-29T06:40:33.869Z,0
2017-12-29T06:41:36.272Z,0
2017-12-29T06:42:38.688Z,0
2017-12-29T06:43:41.093Z,0
2017-12-29T06:44:43.503Z,0
2017-12-29T06:45:45.918Z,0
2017-12-29T06:46:48.319Z,0
2017-12-29T06:47:50.729Z,0
2017-12-29T06:48:53.140Z,0
2017-12-29T06:49:55.553Z,0
2017-12-29T06:50:57.970Z,0
2017-12-29T06:52:00.373Z,0
2017-12-29T06:53:02.797Z,0
2017-12-29T06:54:05.478Z,0
2017-12-29T06:55:08.380Z,0
2017-12-29T06:56:10.789Z,4
2017-12-29T06:57:13.203Z,4
2017-12-29T06:58:15.608Z,4
2017-12-29T06:59:18.029Z,0
2017-12-29T07:00:20.426Z,0
2017-12-29T07:01:22.839Z,4
2017-12-29T07:02:25.247Z,8
2017-12-29T07:03:27.649Z,4
2017-12-29T07:04:30.135Z,4
2017-12-29T07:05:32.569Z,8
2017-12-29T07:06:35.505Z,12
2017-12-29T07:07:37.915Z,12
2017-12-29T07:08:40.319Z,16
2017-12-29T07:09:42.745Z,20
2017-12-29T07:10:45.155Z,20
2017-12-29T07:11:47.560Z,20
2017-12-29T07:12:49.972Z,28
2017-12-29T07:13:52.380Z,32
2017-12-29T07:14:54.798Z,36
2017-12-29T07:15:57.207Z,40
2017-12-29T07:16:59.607Z,52
2017-12-29T07:18:02.305Z,60
2017-12-29T07:19:04.723Z,72
2017-12-29T07:20:07.731Z,88
2017-12-29T07:21:10.146Z,92
2017-12-29T07:22:12.826Z,92
2017-12-29T07:23:15.230Z,92
2017-12-29T07:24:17.648Z,96
2017-12-29T07:25:20.065Z,100
2017-12-29T07:26:22.466Z,132
2017-12-29T07:27:24.873Z,152
2017-12-29T07:28:27.285Z,184
2017-12-29T07:29:29.696Z,200
2017-12-29T07:30:32.119Z,224
2017-12-29T07:31:34.817Z,264
2017-12-29T07:32:37.222Z,292
2017-12-29T07:33:39.649Z,312
2017-12-29T07:34:42.047Z,340
2017-12-29T07:35:44.457Z,384
2017-12-29T07:36:46.953Z,436
2017-12-29T07:37:49.887Z,464
2017-12-29T07:38:52.303Z,500
2017-12-29T07:39:54.722Z,492
2017-12-29T07:40:57.422Z,380
2017-12-29T07:41:59.842Z,272
2017-12-29T07:43:02.532Z,280
2017-12-29T07:44:04.946Z,336
2017-12-29T07:45:07.355Z,488
2017-12-29T07:46:09.772Z,608
2017-12-29T07:47:12.178Z,716
2017-12-29T07:48:14.601Z,764
2017-12-29T07:49:17.004Z,648
2017-12-29T07:50:19.716Z,544
2017-12-29T07:51:22.134Z,480
2017-12-29T07:52:24.528Z,452
2017-12-29T07:53:26.950Z,352
2017-12-29T07:54:29.357Z,344
2017-12-29T07:55:31.774Z,396
2017-12-29T07:56:34.182Z,592
2017-12-29T07:57:36.590Z,676
2017-12-29T07:58:38.996Z,748
2017-12-29T07:59:41.419Z,692
2017-12-29T08:00:43.825Z,736
2017-12-29T08:01:46.233Z,756
2017-12-29T08:02:48.650Z,792
2017-12-29T08:03:51.061Z,900
2017-12-29T08:04:53.462Z,1028
2017-12-29T08:05:55.880Z,1268
2017-12-29T08:06:58.576Z,1716
2017-12-29T08:08:00.984Z,2156
2017-12-29T08:09:03.392Z,2592
2017-12-29T08:10:05.798Z,2252
2017-12-29T08:11:08.215Z,1568
2017-12-29T08:12:10.622Z,984
2017-12-29T08:13:13.036Z,664
2017-12-29T08:14:15.430Z,616
2017-12-29T08:15:17.841Z,688
2017-12-29T08:16:20.256Z,864
2017-12-29T08:17:22.667Z,960
2017-12-29T08:18:25.088Z,964
2017-12-29T08:19:27.501Z,984
2017-12-29T08:20:30.205Z,1088
2017-12-29T08:21:32.892Z,1160
2017-12-29T08:22:35.310Z,1436
2017-12-29T08:23:37.705Z,1716
2017-12-29T08:24:40.126Z,2004
2017-12-29T08:25:42.549Z,1656
2017-12-29T08:26:44.953Z,1620
2017-12-29T08:27:47.367Z,1788
2017-12-29T08:28:50.059Z,1832
2017-12-29T08:29:52.753Z,1496
2017-12-29T08:30:55.164Z,1240
2017-12-29T08:31:57.569Z,1404
2017-12-29T08:32:59.981Z,1516
2017-12-29T08:34:02.393Z,1824
2017-12-29T08:35:04.826Z,1900
2017-12-29T08:36:07.871Z,1780
2017-12-29T08:37:10.288Z,1684
2017-12-29T08:38:12.988Z,1072
2017-12-29T08:39:15.685Z,1144
2017-12-29T08:40:18.379Z,1584
2017-12-29T08:41:21.370Z,1704
2017-12-29T08:42:23.779Z,1780
2017-12-29T08:43:26.482Z,2336
2017-12-29T08:44:28.888Z,3244
2017-12-29T08:45:31.580Z,3520
2017-12-29T08:46:33.988Z,4176
2017-12-29T08:47:36.416Z,3520
2017-12-29T08:48:38.817Z,3824
2017-12-29T08:49:41.225Z,4092
2017-12-29T08:50:44.024Z,4240
2017-12-29T08:51:46.702Z,3956
2017-12-29T08:52:49.412Z,3520
2017-12-29T08:53:51.813Z,3016
2017-12-29T08:54:54.231Z,2068
2017-12-29T08:55:56.644Z,1696
2017-12-29T08:56:59.071Z,1708
2017-12-29T08:58:01.484Z,1584
2017-12-29T08:59:03.954Z,1524
2017-12-29T09:00:06.357Z,1692
2017-12-29T09:01:08.772Z,1724
2017-12-29T09:02:11.187Z,1568
2017-12-29T09:03:13.605Z,1520
2017-12-29T09:04:16.006Z,1628
2017-12-29T09:05:18.422Z,1704
2017-12-29T09:06:21.123Z,2088
2017-12-29T09:07:23.526Z,2420
2017-12-29T09:08:25.945Z,2168
2017-12-29T09:09:28.359Z,2552
2017-12-29T09:10:30.764Z,2804
2017-12-29T09:11:33.184Z,3012
2017-12-29T09:12:35.594Z,3728
2017-12-29T09:13:38.001Z,3476
2017-12-29T09:14:40.406Z,2916
2017-12-29T09:15:42.820Z,2620
2017-12-29T09:16:45.224Z,2680
2017-12-29T09:17:47.645Z,2928
2017-12-29T09:18:50.059Z,3528
2017-12-29T09:19:52.748Z,4364
2017-12-29T09:21:14.366Z,4188
2017-12-29T09:22:16.767Z,3716
2017-12-29T09:23:19.178Z,4084
2017-12-29T09:24:21.873Z,4256
2017-12-29T09:25:24.287Z,4252
2017-12-29T09:26:26.700Z,4164
2017-12-29T09:27:29.115Z,3032
2017-12-29T09:28:31.521Z,3184
2017-12-29T09:29:33.931Z,2872
2017-12-29T09:30:36.347Z,2480
2017-12-29T09:31:38.773Z,2560
2017-12-29T09:32:41.183Z,2444
2017-12-29T09:33:43.601Z,2036
2017-12-29T09:34:46.016Z,2108
2017-12-29T09:35:48.725Z,2300
2017-12-29T09:36:51.136Z,2040
2017-12-29T09:37:53.544Z,1920
2017-12-29T09:38:56.230Z,2144
2017-12-29T09:39:58.656Z,2540
2017-12-29T09:41:01.342Z,2336
2017-12-29T09:42:03.747Z,2324
2017-12-29T09:43:06.160Z,2584
2017-12-29T09:44:08.578Z,2588
2017-12-29T09:45:10.984Z,2496
2017-12-29T09:46:13.680Z,3096
2017-12-29T09:47:16.078Z,3824
2017-12-29T09:48:18.495Z,3188
2017-12-29T09:49:20.903Z,3536
2017-12-29T09:50:23.888Z,2988
2017-12-29T09:51:26.291Z,2764
2017-12-29T09:52:28.702Z,2700
2017-12-29T09:53:31.104Z,2636
2017-12-29T09:54:33.815Z,2320
2017-12-29T09:55:36.791Z,2676
2017-12-29T09:56:41.648Z,3048
2017-12-29T09:57:46.284Z,2960
2017-12-29T09:58:49.017Z,2916
2017-12-29T09:59:53.854Z,2592
2017-12-29T10:00:56.261Z,2896
2017-12-29T10:01:58.664Z,2880
2017-12-29T10:03:01.086Z,3252
2017-12-29T10:04:03.510Z,4804
2017-12-29T10:05:05.924Z,4884
2017-12-29T10:06:08.337Z,5052
2017-12-29T10:07:10.743Z,5580
2017-12-29T10:08:13.152Z,8236
2017-12-29T10:09:15.557Z,9080
2017-12-29T10:10:17.970Z,8360
2017-12-29T10:11:20.377Z,6536
2017-12-29T10:12:22.783Z,6192
2017-12-29T10:13:25.195Z,5908
2017-12-29T10:14:27.606Z,5900
2017-12-29T10:15:30.015Z,5956
2017-12-29T10:16:32.429Z,5384
2017-12-29T10:17:34.839Z,5692
2017-12-29T10:18:37.266Z,6572
2017-12-29T10:19:39.681Z,6872
2017-12-29T10:20:42.089Z,6852
2017-12-29T10:21:44.501Z,6980
2017-12-29T10:22:46.912Z,7004
2017-12-29T10:23:49.319Z,5524
2017-12-29T10:24:51.731Z,4324
2017-12-29T10:25:54.138Z,3696
2017-12-29T10:26:56.544Z,3716
2017-12-29T10:27:58.950Z,3768
2017-12-29T10:30:55.375Z,5540
2017-12-29T10:31:57.839Z,4780
2017-12-29T10:33:00.251Z,4204
2017-12-29T10:34:02.675Z,3580
2017-12-29T10:35:05.380Z,3576
2017-12-29T10:36:07.797Z,3456
2017-12-29T10:37:10.200Z,3172
2017-12-29T10:38:12.833Z,2828
2017-12-29T10:39:15.517Z,2900
2017-12-29T10:40:17.927Z,3200
2017-12-29T10:41:20.331Z,3588
2017-12-29T10:42:22.741Z,3576
2017-12-29T10:43:25.732Z,3448
2017-12-29T10:44:28.146Z,3724
2017-12-29T10:45:30.548Z,4588
2017-12-29T10:46:32.959Z,4592
2017-12-29T10:47:35.685Z,4776
2017-12-29T10:48:38.106Z,4844
2017-12-29T10:49:40.512Z,4824
2017-12-29T10:50:43.208Z,5160
2017-12-29T10:51:45.616Z,5588
2017-12-29T10:52:48.038Z,4524
2017-12-29T10:53:50.445Z,4308
2017-12-29T10:54:52.841Z,4392
2017-12-29T10:55:55.264Z,5712
2017-12-29T10:56:57.658Z,7480
2017-12-29T10:58:00.079Z,5864
2017-12-29T10:59:02.484Z,7780
2017-12-29T11:00:04.895Z,8368
2017-12-29T11:01:07.584Z,7996
2017-12-29T11:02:10.000Z,7356
2017-12-29T11:03:12.413Z,8948
2017-12-29T11:04:14.825Z,13456
2017-12-29T11:05:17.241Z,17504
2017-12-29T11:06:19.644Z,23712
2017-12-29T11:07:22.057Z,23904
2017-12-29T11:08:24.468Z,18496
2017-12-29T11:09:26.887Z,19328
2017-12-29T11:10:29.298Z,26688
2017-12-29T11:11:31.704Z,17392
2017-12-29T11:12:34.123Z,15336
2017-12-29T11:13:36.539Z,14872
2017-12-29T11:14:38.950Z,14252
2017-12-29T11:15:41.653Z,14504
2017-12-29T11:16:44.067Z,14368
2017-12-29T11:17:46.480Z,13300
2017-12-29T11:18:48.900Z,13316
2017-12-29T11:19:51.298Z,12132
2017-12-29T11:20:53.714Z,12340
2017-12-29T11:21:56.128Z,12216
2017-12-29T11:22:58.532Z,11668
2017-12-29T11:24:00.948Z,11428
2017-12-29T11:25:03.358Z,10684
2017-12-29T11:26:05.768Z,8512
2017-12-29T11:27:08.181Z,5944
2017-12-29T11:28:10.617Z,5884
2017-12-29T11:29:12.997Z,5468
2017-12-29T11:30:15.423Z,4588
2017-12-29T11:31:17.827Z,5524
2017-12-29T11:32:20.237Z,6344
2017-12-29T11:33:22.640Z,6500
2017-12-29T11:34:25.051Z,6464
2017-12-29T11:35:27.458Z,5660
2017-12-29T11:36:29.865Z,7776
2017-12-29T11:37:32.293Z,8780
2017-12-29T11:38:34.701Z,8604
2017-12-29T11:39:37.112Z,9228
2017-12-29T11:40:39.526Z,9116
2017-12-29T11:41:41.942Z,8296
2017-12-29T11:42:44.361Z,7064
2017-12-29T11:43:46.771Z,6484
2017-12-29T11:44:49.176Z,5896
2017-12-29T11:45:51.871Z,7112
2017-12-29T11:46:54.290Z,7816
2017-12-29T11:47:56.702Z,7444
2017-12-29T11:48:59.396Z,7108
2017-12-29T11:50:02.085Z,7180
2017-12-29T11:51:04.490Z,7888
2017-12-29T11:52:06.915Z,8232
2017-12-29T11:53:09.327Z,8788
2017-12-29T11:54:11.730Z,9352
2017-12-29T11:55:14.427Z,10896
2017-12-29T11:56:16.845Z,10840
2017-12-29T11:57:19.543Z,10928
2017-12-29T11:58:21.963Z,10600
2017-12-29T11:59:24.362Z,10600
2017-12-29T12:00:26.767Z,10460
2017-12-29T12:01:29.194Z,9616
2017-12-29T12:02:31.882Z,8412
2017-12-29T12:03:34.289Z,8224
2017-12-29T12:04:36.700Z,8140
2017-12-29T12:05:39.396Z,8192
2017-12-29T12:06:41.807Z,8048
2017-12-29T12:07:44.218Z,7812
2017-12-29T12:08:46.921Z,8184
2017-12-29T12:09:49.334Z,8876
2017-12-29T12:10:51.746Z,9360
2017-12-29T12:11:54.163Z,9952
2017-12-29T12:12:56.567Z,10160
2017-12-29T12:13:58.985Z,10092
2017-12-29T12:15:01.398Z,10008
2017-12-29T12:16:03.806Z,10028
2017-12-29T12:17:06.214Z,9812
2017-12-29T12:18:08.631Z,9464
2017-12-29T12:19:11.043Z,8824
2017-12-29T12:20:13.454Z,8240
2017-12-29T12:21:15.870Z,8140
2017-12-29T12:22:18.282Z,8200
2017-12-29T12:23:20.980Z,8304
2017-12-29T12:24:23.393Z,7992
2017-12-29T12:25:25.813Z,7820
2017-12-29T12:26:28.225Z,7804
2017-12-29T12:27:30.629Z,7980
2017-12-29T12:28:33.326Z,8152
2017-12-29T12:29:35.732Z,8264
2017-12-29T12:30:38.142Z,8640
2017-12-29T12:31:40.558Z,9296
2017-12-29T12:32:42.967Z,9824
2017-12-29T12:33:45.385Z,10656
2017-12-29T12:34:47.789Z,11528
2017-12-29T12:35:50.486Z,12120
2017-12-29T12:36:52.904Z,12392
2017-12-29T12:37:55.308Z,15340
2017-12-29T12:38:57.725Z,12756
2017-12-29T12:40:00.133Z,13808
2017-12-29T12:41:02.554Z,11136
2017-12-29T12:42:04.965Z,10720
2017-12-29T12:43:07.374Z,10192
2017-12-29T12:44:09.781Z,10028
2017-12-29T12:45:12.195Z,14208
2017-12-29T12:46:14.616Z,16416
2017-12-29T12:47:17.035Z,13516
2017-12-29T12:48:19.437Z,13104
2017-12-29T12:49:21.835Z,13536
2017-12-29T12:50:24.248Z,12868
2017-12-29T12:51:26.667Z,10560
2017-12-29T12:52:29.070Z,8980
2017-12-29T12:53:31.487Z,7500
2017-12-29T12:54:34.175Z,7220
2017-12-29T12:55:36.600Z,7520
2017-12-29T12:56:39.010Z,8268
2017-12-29T12:57:41.716Z,9684
2017-12-29T12:58:44.109Z,10908
2017-12-29T12:59:46.812Z,11520
2017-12-29T13:00:49.223Z,9968
2017-12-29T13:01:51.638Z,9916
2017-12-29T13:02:54.044Z,8856
2017-12-29T13:03:56.463Z,8392
2017-12-29T13:04:58.867Z,7816
2017-12-29T13:06:01.568Z,8256
2017-12-29T13:07:03.978Z,7352
2017-12-29T13:08:06.402Z,6680
2017-12-29T13:09:09.089Z,6184
2017-12-29T13:10:11.503Z,6392
2017-12-29T13:11:13.915Z,6480
2017-12-29T13:12:16.326Z,6564
2017-12-29T13:13:18.745Z,6908
2017-12-29T13:14:21.161Z,7140
2017-12-29T13:15:23.860Z,7740
2017-12-29T13:16:26.279Z,7740
2017-12-29T13:17:28.678Z,6848
2017-12-29T13:18:31.383Z,6072
2017-12-29T13:19:34.077Z,5596
2017-12-29T13:20:36.776Z,5536
2017-12-29T13:21:39.188Z,5736
2017-12-29T13:22:41.616Z,6136
2017-12-29T13:23:44.016Z,6336
2017-12-29T13:24:46.723Z,5976
2017-12-29T13:25:49.129Z,5288
2017-12-29T13:26:51.542Z,5504
2017-12-29T13:27:53.962Z,6004
2017-12-29T13:28:56.656Z,6048
2017-12-29T13:29:59.072Z,5688
2017-12-29T13:31:01.773Z,5116
2017-12-29T13:32:04.192Z,4804
2017-12-29T13:33:06.589Z,4464
2017-12-29T13:34:09.016Z,4428
2017-12-29T13:35:11.435Z,4252
2017-12-29T13:36:14.119Z,4048
2017-12-29T13:37:16.538Z,3848
2017-12-29T13:38:18.948Z,4568
2017-12-29T13:39:21.353Z,5188
2017-12-29T13:40:24.223Z,5532
2017-12-29T13:41:26.624Z,5488
2017-12-29T13:42:29.040Z,5564
2017-12-29T13:43:31.528Z,5416
2017-12-29T13:44:33.925Z,5488
2017-12-29T13:45:36.341Z,5380
2017-12-29T13:46:39.454Z,4788
2017-12-29T13:47:41.853Z,5020
2017-12-29T13:48:44.285Z,5700
2017-12-29T13:49:46.701Z,6316
2017-12-29T13:50:49.109Z,6548
2017-12-29T13:51:51.525Z,6076
2017-12-29T13:52:53.932Z,5496
2017-12-29T13:53:56.344Z,5340
2017-12-29T13:54:58.806Z,5320
2017-12-29T13:56:01.501Z,5340
2017-12-29T13:57:03.913Z,5260
2017-12-29T13:58:06.625Z,5108
2017-12-29T13:59:09.322Z,4872
2017-12-29T14:00:11.739Z,4288
2017-12-29T14:01:14.146Z,4040
2017-12-29T14:02:16.560Z,3944
2017-12-29T14:03:18.966Z,3928
2017-12-29T14:04:21.393Z,3912
2017-12-29T14:05:23.814Z,3980
2017-12-29T14:06:26.230Z,3864
2017-12-29T14:07:28.637Z,3992
2017-12-29T14:08:31.064Z,4032
2017-12-29T14:09:33.472Z,3864
2017-12-29T14:10:35.887Z,3868
2017-12-29T14:11:38.297Z,3804
2017-12-29T14:12:41.455Z,3480
2017-12-29T14:13:43.855Z,3352
2017-12-29T14:14:46.272Z,3328
2017-12-29T14:15:48.680Z,3104
2017-12-29T14:16:51.368Z,3028
2017-12-29T14:17:53.779Z,2948
2017-12-29T14:18:56.193Z,2940
2017-12-29T14:19:58.898Z,2892
2017-12-29T14:21:01.318Z,2792
2017-12-29T14:22:03.716Z,2720
2017-12-29T14:23:06.139Z,2636
2017-12-29T14:24:08.832Z,2552
2017-12-29T14:25:11.252Z,2460
2017-12-29T14:26:13.953Z,2384
2017-12-29T14:27:16.364Z,2300
2017-12-29T14:28:18.773Z,2212
2017-12-29T14:29:21.196Z,2136
2017-12-29T14:30:23.606Z,2044
2017-12-29T14:31:26.006Z,1944
2017-12-29T14:32:28.705Z,1840
2017-12-29T14:33:31.119Z,1768
2017-12-29T14:34:33.532Z,1724
2017-12-29T14:35:35.937Z,1696
2017-12-29T14:36:38.639Z,1644
2017-12-29T14:37:41.046Z,1564